createdAt,value
2018-12-16T00:00:15.701Z,11.97
2018-12-16T00:02:54.133Z,12.30
2018-12-16T00:05:30.154Z,12.83
2018-12-16T00:08:01.700Z,12.23
2018-12-16T00:10:33.513Z,11.60
2018-12-16T00:13:08.240Z,14.23
2018-12-16T00:15:46.223Z,13.13
2018-12-16T00:18:26.656Z,11.60
2018-12-16T00:21:02.086Z,12.20
2018-12-16T00:23:33.714Z,12.63
2018-12-16T00:26:05.898Z,13.37
2018-12-16T00:28:40.233Z,12.70
2018-12-16T00:31:14.306Z,11.90
2018-12-16T00:33:54.769Z,12.67
2018-12-16T00:36:28.416Z,12.37
2018-12-16T00:39:06.453Z,10.97
2018-12-16T00:41:38.081Z,11.20
2018-12-16T00:44:09.698Z,13.67
2018-12-16T00:46:41.428Z,11.93
2018-12-16T00:49:15.997Z,12.13
2018-12-16T00:51:52.124Z,11.10
2018-12-16T00:54:29.995Z,13.13
2018-12-16T00:57:10.317Z,11.40
2018-12-16T00:59:42.322Z,11.00
2018-12-16T01:02:19.647Z,12.73
2018-12-16T01:04:49.775Z,12.57
2018-12-16T01:07:27.985Z,11.87
2018-12-16T01:10:14.490Z,11.07
2018-12-16T01:12:50.718Z,12.67
2018-12-16T01:15:24.606Z,13.43
2018-12-16T01:20:34.564Z,11.27
2018-12-16T01:23:08.496Z,12.37
2018-12-16T01:28:32.800Z,13.73
2018-12-16T01:31:04.845Z,12.67
2018-12-16T01:33:35.002Z,12.80
2018-12-16T01:36:11.561Z,11.50
2018-12-16T01:38:41.648Z,12.93
2018-12-16T01:41:11.347Z,12.47
2018-12-16T01:43:40.456Z,12.13
2018-12-16T01:46:12.532Z,11.77
2018-12-16T01:48:49.176Z,11.50
2018-12-16T01:51:18.693Z,11.00
2018-12-16T01:53:50.888Z,12.17
2018-12-16T01:56:23.077Z,13.40
2018-12-16T01:58:53.199Z,11.03
2018-12-16T02:04:18.428Z,13.57
2018-12-16T02:06:50.392Z,11.97
2018-12-16T02:09:23.141Z,11.90
2018-12-16T02:12:05.262Z,10.97
2018-12-16T02:14:34.475Z,12.43
2018-12-16T02:17:09.050Z,12.23
2018-12-16T02:22:21.019Z,12.60
2018-12-16T02:24:52.629Z,12.60
2018-12-16T02:27:24.662Z,13.53
2018-12-16T02:29:54.683Z,13.47
2018-12-16T02:32:28.522Z,14.93
2018-12-16T02:35:01.365Z,14.40
2018-12-16T02:37:33.332Z,11.70
2018-12-16T02:40:05.561Z,12.57
2018-12-16T02:42:40.066Z,14.43
2018-12-16T02:45:19.342Z,15.50
2018-12-16T02:47:49.585Z,14.43
2018-12-16T02:50:18.861Z,14.90
2018-12-16T02:52:48.804Z,14.73
2018-12-16T02:55:23.269Z,13.47
2018-12-16T02:57:57.325Z,12.97
2018-12-16T03:00:35.184Z,13.40
2018-12-16T03:03:06.745Z,14.13
2018-12-16T03:05:38.899Z,14.67
2018-12-16T03:08:11.012Z,13.97
2018-12-16T03:10:45.257Z,13.37
2018-12-16T03:16:25.550Z,13.97
2018-12-16T03:18:59.930Z,13.17
2018-12-16T03:21:33.604Z,13.03
2018-12-16T03:24:08.536Z,13.83
2018-12-16T03:26:44.714Z,13.47
2018-12-16T03:32:14.973Z,13.93
2018-12-16T03:34:44.869Z,15.37
2018-12-16T03:37:20.226Z,13.53
2018-12-16T03:39:51.787Z,14.60
2018-12-16T03:42:26.225Z,14.83
2018-12-16T03:44:58.002Z,14.50
2018-12-16T03:47:29.249Z,14.47
2018-12-16T03:50:01.861Z,13.20
2018-12-16T03:52:33.490Z,14.10
2018-12-16T03:55:05.638Z,15.73
2018-12-16T03:57:40.147Z,15.30
2018-12-16T04:00:20.692Z,15.03
2018-12-16T04:02:57.052Z,15.10
2018-12-16T04:05:28.645Z,15.57
2018-12-16T04:08:00.678Z,14.70
2018-12-16T04:10:35.277Z,13.40
2018-12-16T04:15:59.751Z,15.73
2018-12-16T04:18:33.909Z,13.17
2018-12-16T04:21:03.435Z,13.47
2018-12-16T04:23:37.458Z,14.93
2018-12-16T04:26:15.295Z,14.03
2018-12-16T04:28:45.072Z,15.50
2018-12-16T04:31:21.892Z,16.13
2018-12-16T04:33:59.688Z,17.00
2018-12-16T04:36:39.846Z,16.43
2018-12-16T04:39:14.469Z,15.77
2018-12-16T04:41:58.836Z,15.80
2018-12-16T04:44:30.952Z,16.50
2018-12-16T04:47:02.743Z,16.30
2018-12-16T04:49:43.743Z,17.73
2018-12-16T04:52:18.369Z,18.10
2018-12-16T04:54:49.852Z,17.27
2018-12-16T04:57:24.482Z,16.10
2018-12-16T04:59:56.009Z,15.33
2018-12-16T05:02:33.673Z,17.17
2018-12-16T05:05:05.883Z,25.87
2018-12-16T05:07:37.635Z,21.07
2018-12-16T05:10:17.740Z,21.97
2018-12-16T05:12:49.683Z,19.10
2018-12-16T05:15:19.427Z,17.17
2018-12-16T05:17:54.015Z,17.23
2018-12-16T05:20:27.964Z,15.60
2018-12-16T05:22:59.470Z,16.87
2018-12-16T05:25:31.508Z,16.90
2018-12-16T05:28:03.005Z,15.87
2018-12-16T05:30:39.355Z,16.13
2018-12-16T05:33:11.144Z,17.80
2018-12-16T05:35:45.702Z,14.97
2018-12-16T05:38:15.391Z,16.20
2018-12-16T05:40:50.550Z,15.93
2018-12-16T05:43:26.925Z,16.93
2018-12-16T05:45:58.363Z,15.43
2018-12-16T05:48:34.590Z,17.00
2018-12-16T05:51:08.635Z,17.57
2018-12-16T05:53:48.405Z,16.50
2018-12-16T05:56:25.316Z,16.27
2018-12-16T05:58:57.966Z,16.87
2018-12-16T06:01:29.876Z,15.37
2018-12-16T06:04:01.831Z,15.03
2018-12-16T06:06:34.379Z,17.97
2018-12-16T06:09:06.582Z,16.17
2018-12-16T06:14:37.732Z,16.40
2018-12-16T06:17:09.448Z,15.87
2018-12-16T06:19:41.185Z,18.23
2018-12-16T06:22:14.940Z,16.77
2018-12-16T06:24:46.443Z,15.80
2018-12-16T06:27:18.890Z,17.93
2018-12-16T06:32:23.106Z,16.70
2018-12-16T06:35:00.948Z,19.03
2018-12-16T06:37:32.692Z,19.07
2018-12-16T06:40:17.299Z,18.60
2018-12-16T06:42:51.725Z,17.50
2018-12-16T06:45:27.603Z,18.67
2018-12-16T06:48:14.230Z,18.17
2018-12-16T06:50:52.484Z,18.37
2018-12-16T06:53:24.589Z,17.33
2018-12-16T06:56:06.605Z,16.73
2018-12-16T06:58:41.084Z,17.07
2018-12-16T07:01:12.502Z,18.30
2018-12-16T07:03:44.501Z,18.37
2018-12-16T07:06:17.105Z,17.27
2018-12-16T07:08:51.086Z,17.87
2018-12-16T07:11:22.687Z,19.17
2018-12-16T07:13:54.955Z,16.83
2018-12-16T07:16:29.778Z,17.03
2018-12-16T07:19:03.818Z,16.57
2018-12-16T07:21:39.263Z,17.87
2018-12-16T07:24:11.271Z,18.67
2018-12-16T07:26:42.546Z,19.07
2018-12-16T07:29:20.365Z,18.70
2018-12-16T07:31:54.646Z,17.77
2018-12-16T07:36:55.204Z,17.43
2018-12-16T07:39:28.896Z,18.53
2018-12-16T07:42:06.048Z,17.43
2018-12-16T07:44:40.301Z,17.27
2018-12-16T07:47:21.829Z,18.33
2018-12-16T07:49:51.807Z,17.07
2018-12-16T07:52:26.302Z,17.83
2018-12-16T07:55:00.369Z,17.43
2018-12-16T07:57:32.867Z,18.03
2018-12-16T08:00:13.244Z,16.97
2018-12-16T08:02:46.993Z,16.43
2018-12-16T08:05:18.842Z,17.17
2018-12-16T08:07:53.488Z,18.20
2018-12-16T08:10:25.041Z,16.97
2018-12-16T08:12:57.163Z,17.97
2018-12-16T08:15:31.606Z,16.73
2018-12-16T08:18:03.334Z,17.87
2018-12-16T08:20:37.901Z,16.43
2018-12-16T08:23:18.285Z,17.53
2018-12-16T08:25:51.058Z,16.20
2018-12-16T08:28:31.429Z,18.40
2018-12-16T08:31:03.640Z,16.27
2018-12-16T08:33:50.678Z,16.10
2018-12-16T08:36:22.544Z,16.87
2018-12-16T08:38:53.793Z,19.23
2018-12-16T08:41:25.720Z,18.27
2018-12-16T08:43:55.059Z,16.03
2018-12-16T08:46:31.680Z,17.33
2018-12-16T08:49:05.887Z,16.57
2018-12-16T08:51:37.654Z,16.10
2018-12-16T08:54:22.755Z,16.00
2018-12-16T08:56:54.958Z,15.57
2018-12-16T09:02:35.887Z,14.70
2018-12-16T09:05:09.726Z,16.23
2018-12-16T09:07:43.598Z,15.90
2018-12-16T09:10:13.508Z,15.27
2018-12-16T09:12:45.277Z,15.73
2018-12-16T09:15:15.376Z,16.90
2018-12-16T09:17:45.549Z,14.33
2018-12-16T09:20:19.371Z,15.00
2018-12-16T09:22:48.617Z,15.40
2018-12-16T09:25:22.284Z,16.07
2018-12-16T09:28:00.226Z,15.03
2018-12-16T09:30:36.460Z,14.00
2018-12-16T09:33:08.310Z,14.50
2018-12-16T09:35:40.331Z,14.40
2018-12-16T09:40:46.714Z,14.83
2018-12-16T09:43:18.136Z,12.47
2018-12-16T09:45:52.150Z,13.27
2018-12-16T09:54:29.805Z,13.40
2018-12-16T09:57:04.240Z,13.90
2018-12-16T09:59:39.430Z,13.40
2018-12-16T10:02:11.147Z,13.67
2018-12-16T10:04:43.260Z,12.63
2018-12-16T10:10:16.971Z,12.07
2018-12-16T10:13:01.587Z,14.10
2018-12-16T10:15:33.630Z,14.13
2018-12-16T10:18:04.013Z,13.60
2018-12-16T10:20:42.390Z,13.90
2018-12-16T10:23:28.211Z,12.63
2018-12-16T10:26:00.316Z,13.90
2018-12-16T10:28:42.291Z,13.23
2018-12-16T10:31:11.510Z,14.40
2018-12-16T10:33:47.571Z,13.33
2018-12-16T10:36:25.292Z,13.67
2018-12-16T10:41:28.353Z,14.53
2018-12-16T10:44:00.497Z,13.17
2018-12-16T10:46:29.946Z,13.50
2018-12-16T10:49:14.112Z,12.43
2018-12-16T10:51:49.847Z,12.83
2018-12-16T10:54:19.194Z,13.50
2018-12-16T10:56:50.561Z,14.77
2018-12-16T10:59:27.107Z,13.80
2018-12-16T11:01:57.100Z,13.93
2018-12-16T11:04:31.972Z,14.47
2018-12-16T11:07:12.244Z,15.37
2018-12-16T11:09:46.927Z,14.13
2018-12-16T11:12:17.448Z,15.10
2018-12-16T11:14:52.088Z,14.23
2018-12-16T11:20:23.934Z,12.60
2018-12-16T11:22:54.169Z,14.30
2018-12-16T11:25:26.213Z,12.63
2018-12-16T11:27:58.399Z,14.63
2018-12-16T11:30:30.116Z,13.90
2018-12-16T11:33:00.033Z,13.13
2018-12-16T11:35:30.106Z,13.83
2018-12-16T11:38:01.747Z,12.90
2018-12-16T11:45:36.853Z,12.97
2018-12-16T11:48:09.025Z,13.70
2018-12-16T11:50:41.053Z,13.17
2018-12-16T11:53:13.119Z,13.20
2018-12-16T11:55:45.117Z,13.80
2018-12-16T11:58:26.112Z,13.83
2018-12-16T12:01:01.462Z,13.50
2018-12-16T12:03:33.268Z,12.67
2018-12-16T12:06:03.315Z,12.33
2018-12-16T12:08:36.958Z,14.23
2018-12-16T12:11:13.333Z,12.97
2018-12-16T12:13:45.053Z,11.93
2018-12-16T12:16:17.376Z,12.13
2018-12-16T12:19:01.133Z,12.13
2018-12-16T12:21:30.989Z,13.17
2018-12-16T12:24:01.280Z,12.47
2018-12-16T12:26:33.504Z,12.60
2018-12-16T12:29:08.225Z,13.57
2018-12-16T12:31:42.774Z,12.83
2018-12-16T12:34:14.160Z,13.97
2018-12-16T12:39:34.810Z,12.87
2018-12-16T12:42:07.160Z,11.73
2018-12-16T12:44:39.327Z,13.13
2018-12-16T12:47:11.471Z,12.30
2018-12-16T12:49:45.660Z,12.20
2018-12-16T12:52:20.020Z,12.63
2018-12-16T12:54:51.979Z,11.97
2018-12-16T12:57:23.682Z,12.47
2018-12-16T12:59:57.448Z,12.90
2018-12-16T13:02:29.316Z,12.93
2018-12-16T13:05:05.819Z,11.70
2018-12-16T13:07:37.900Z,13.70
2018-12-16T13:10:09.905Z,11.47
2018-12-16T13:12:41.848Z,13.87
2018-12-16T13:15:11.166Z,13.67
2018-12-16T13:17:45.784Z,13.67
2018-12-16T13:20:26.314Z,12.50
2018-12-16T13:23:02.700Z,13.10
2018-12-16T13:25:45.943Z,12.80
2018-12-16T13:28:17.760Z,13.03
2018-12-16T13:30:52.060Z,12.57
2018-12-16T13:33:26.102Z,13.03
2018-12-16T13:35:57.445Z,14.57
2018-12-16T13:38:38.465Z,12.67
2018-12-16T13:41:14.968Z,14.57
2018-12-16T13:43:49.068Z,12.77
2018-12-16T13:46:27.186Z,12.50
2018-12-16T13:49:01.515Z,14.60
2018-12-16T13:51:33.871Z,13.30
2018-12-16T13:54:14.571Z,13.33
2018-12-16T13:56:46.503Z,12.87
2018-12-16T14:02:14.534Z,12.90
2018-12-16T14:04:50.510Z,14.17
2018-12-16T14:07:22.075Z,15.23
2018-12-16T14:09:53.609Z,14.17
2018-12-16T14:12:25.598Z,14.33
2018-12-16T14:15:00.125Z,14.27
2018-12-16T14:17:32.355Z,13.37
2018-12-16T14:26:02.281Z,15.10
2018-12-16T14:28:42.891Z,14.97
2018-12-16T14:31:14.127Z,14.67
2018-12-16T14:33:45.460Z,14.93
2018-12-16T14:36:20.466Z,15.03
2018-12-16T14:38:52.654Z,15.77
2018-12-16T14:41:33.552Z,15.60
2018-12-16T14:44:07.202Z,15.20
2018-12-16T14:46:39.507Z,15.20
2018-12-16T14:49:11.025Z,15.57
2018-12-16T14:51:43.139Z,16.87
2018-12-16T14:54:18.940Z,15.73
2018-12-16T14:56:50.771Z,15.43
2018-12-16T14:59:25.292Z,16.53
2018-12-16T15:01:57.401Z,15.83
2018-12-16T15:04:27.181Z,16.40
2018-12-16T15:07:07.276Z,15.87
2018-12-16T15:09:38.543Z,15.03
2018-12-16T15:12:10.221Z,16.17
2018-12-16T15:15:01.313Z,16.00
2018-12-16T15:17:42.686Z,16.10
2018-12-16T15:20:17.998Z,16.03
2018-12-16T15:22:49.872Z,15.37
2018-12-16T15:25:19.241Z,17.40
2018-12-16T15:27:51.046Z,16.20
2018-12-16T15:30:27.429Z,15.17
2018-12-16T15:33:05.425Z,15.83
2018-12-16T15:35:43.506Z,16.23
2018-12-16T15:38:21.791Z,15.43
2018-12-16T15:40:59.964Z,16.20
2018-12-16T15:43:30.807Z,15.97
2018-12-16T15:46:03.108Z,15.23
2018-12-16T15:51:32.978Z,15.63
2018-12-16T15:54:05.395Z,15.00
2018-12-16T15:56:43.979Z,17.30
2018-12-16T15:59:21.997Z,16.53
2018-12-16T16:01:58.270Z,15.60
2018-12-16T16:04:45.075Z,15.77
2018-12-16T16:07:19.746Z,17.27
2018-12-16T16:09:51.483Z,16.00
2018-12-16T16:12:23.580Z,17.10
2018-12-16T16:15:05.632Z,19.30
2018-12-16T16:17:40.269Z,16.97
2018-12-16T16:20:10.255Z,18.20
2018-12-16T16:22:40.304Z,18.13
2018-12-16T16:25:18.915Z,20.20
2018-12-16T16:27:52.937Z,21.50
2018-12-16T16:30:25.544Z,23.57
2018-12-16T16:32:57.719Z,21.67
2018-12-16T16:35:32.439Z,20.63
2018-12-16T16:38:04.277Z,21.47
2018-12-16T16:40:38.908Z,21.37
2018-12-16T16:43:13.853Z,21.87
2018-12-16T16:45:51.645Z,22.73
2018-12-16T16:48:26.283Z,21.17
2018-12-16T16:51:00.841Z,19.80
2018-12-16T16:53:34.956Z,19.07
2018-12-16T16:56:09.073Z,19.10
2018-12-16T16:58:38.821Z,19.40
2018-12-16T17:01:10.892Z,18.60
2018-12-16T17:03:44.895Z,17.90
2018-12-16T17:06:16.895Z,18.20
2018-12-16T17:08:47.151Z,19.43
2018-12-16T17:11:22.321Z,19.23
2018-12-16T17:13:58.521Z,21.27
2018-12-16T17:16:30.581Z,18.37
2018-12-16T17:19:01.516Z,17.83
2018-12-16T17:21:36.943Z,21.30
2018-12-16T17:24:11.577Z,19.97
2018-12-16T17:26:46.639Z,20.83
2018-12-16T17:29:18.244Z,21.70
2018-12-16T17:31:48.639Z,21.93
2018-12-16T17:34:20.883Z,21.77
2018-12-16T17:36:50.177Z,22.63
2018-12-16T17:39:22.437Z,20.80
2018-12-16T17:41:54.421Z,22.33
2018-12-16T17:44:30.513Z,25.10
2018-12-16T17:47:04.302Z,27.70
2018-12-16T17:49:44.890Z,28.33
2018-12-16T17:52:27.208Z,25.50
2018-12-16T17:55:01.060Z,23.13
2018-12-16T17:57:32.852Z,21.63
2018-12-16T18:00:22.149Z,26.13
2018-12-16T18:03:09.256Z,23.57
2018-12-16T18:05:47.697Z,25.07
2018-12-16T18:08:19.512Z,23.90
2018-12-16T18:10:54.502Z,28.57
2018-12-16T18:13:30.542Z,22.37
2018-12-16T18:16:02.248Z,21.90
2018-12-16T18:18:36.878Z,20.63
2018-12-16T18:21:07.337Z,20.07
2018-12-16T18:23:45.393Z,21.80
2018-12-16T18:26:19.639Z,26.70
2018-12-16T18:28:51.116Z,21.27
2018-12-16T18:31:21.051Z,18.23
2018-12-16T18:34:11.685Z,19.57
2018-12-16T18:36:43.518Z,19.90
2018-12-16T18:39:20.179Z,18.30
2018-12-16T18:41:52.177Z,20.27
2018-12-16T18:44:24.048Z,20.17
2018-12-16T18:46:58.219Z,23.10
2018-12-16T18:52:32.441Z,18.33
2018-12-16T18:55:19.655Z,19.67
2018-12-16T18:58:00.348Z,20.07
2018-12-16T19:00:31.614Z,18.50
2018-12-16T19:05:59.020Z,22.30
2018-12-16T19:08:30.740Z,21.50
2018-12-16T19:11:05.292Z,35.23
2018-12-16T19:13:37.207Z,19.97
2018-12-16T19:19:05.197Z,21.60
2018-12-16T19:21:39.589Z,19.93
2018-12-16T19:24:11.318Z,17.23
2018-12-16T19:26:43.315Z,19.83
2018-12-16T19:29:15.678Z,28.93
2018-12-16T19:31:50.343Z,18.80
2018-12-16T19:34:36.899Z,20.13
2018-12-16T19:37:17.978Z,51.40
2018-12-16T19:39:50.053Z,89.90
2018-12-16T19:42:22.078Z,31.63
2018-12-16T19:44:58.668Z,22.43
2018-12-16T19:47:36.769Z,19.43
2018-12-16T19:50:11.084Z,34.13
2018-12-16T19:52:42.577Z,44.53
2018-12-16T19:55:12.094Z,32.03
2018-12-16T19:57:46.357Z,32.17
2018-12-16T20:00:16.338Z,27.47
2018-12-16T20:05:29.481Z,25.67
2018-12-16T20:08:01.629Z,24.63
2018-12-16T20:10:39.502Z,23.77
2018-12-16T20:13:09.267Z,21.87
2018-12-16T20:15:47.871Z,23.67
2018-12-16T20:18:22.108Z,20.00
2018-12-16T20:21:00.114Z,20.90
2018-12-16T20:23:33.902Z,21.57
2018-12-16T20:26:08.056Z,23.20
2018-12-16T20:28:40.254Z,23.03
2018-12-16T20:31:12.634Z,22.13
2018-12-16T20:33:47.360Z,23.97
2018-12-16T20:36:18.096Z,21.27
2018-12-16T20:38:49.591Z,20.00
2018-12-16T20:41:21.676Z,20.37
2018-12-16T20:44:08.704Z,21.27
2018-12-16T20:46:51.437Z,22.97
2018-12-16T20:49:23.424Z,23.17
2018-12-16T20:51:55.588Z,21.03
2018-12-16T20:54:34.182Z,21.03
2018-12-16T20:57:08.133Z,22.17
2018-12-16T20:59:39.716Z,21.87
2018-12-16T21:02:13.305Z,22.47
2018-12-16T21:04:54.171Z,22.00
2018-12-16T21:07:38.764Z,22.80
2018-12-16T21:10:10.717Z,23.30
2018-12-16T21:12:54.361Z,22.47
2018-12-16T21:15:33.611Z,22.37
2018-12-16T21:18:16.702Z,23.43
2018-12-16T21:20:48.750Z,26.20
2018-12-16T21:23:23.498Z,22.30
2018-12-16T21:25:54.859Z,20.53
2018-12-16T21:28:30.789Z,20.53
2018-12-16T21:31:02.366Z,20.77
2018-12-16T21:33:38.196Z,21.17
2018-12-16T21:36:16.301Z,20.83
2018-12-16T21:38:48.016Z,21.17
2018-12-16T21:41:19.610Z,21.63
2018-12-16T21:43:55.337Z,25.13
2018-12-16T21:46:27.128Z,25.93
2018-12-16T21:49:02.874Z,21.97
2018-12-16T21:51:34.787Z,22.90
2018-12-16T21:54:09.172Z,21.37
2018-12-16T21:56:40.803Z,18.63
2018-12-16T21:59:15.313Z,19.63
2018-12-16T22:04:45.057Z,22.60
2018-12-16T22:07:16.416Z,23.07
2018-12-16T22:09:54.424Z,23.70
2018-12-16T22:12:34.630Z,21.57
2018-12-16T22:15:22.130Z,22.73
2018-12-16T22:17:56.341Z,24.00
2018-12-16T22:20:31.551Z,19.37
2018-12-16T22:23:05.658Z,22.10
2018-12-16T22:25:46.805Z,27.07
2018-12-16T22:28:23.773Z,20.73
2018-12-16T22:30:55.271Z,21.03
2018-12-16T22:33:27.419Z,23.37
2018-12-16T22:35:59.792Z,23.30
2018-12-16T22:38:33.465Z,23.60
2018-12-16T22:41:05.510Z,21.07
2018-12-16T22:43:37.836Z,22.53
2018-12-16T22:46:14.577Z,21.53
2018-12-16T22:48:46.389Z,21.27
2018-12-16T22:51:16.572Z,20.30
2018-12-16T22:56:41.725Z,20.90
2018-12-16T22:59:17.408Z,19.70
2018-12-16T23:01:48.697Z,21.43
2018-12-16T23:04:19.966Z,19.73
2018-12-16T23:07:00.314Z,19.03
2018-12-16T23:09:34.207Z,18.63
2018-12-16T23:12:08.301Z,20.07
2018-12-16T23:14:40.408Z,18.13
2018-12-16T23:17:19.143Z,18.03
2018-12-16T23:20:02.487Z,19.23
2018-12-16T23:22:36.194Z,18.63
2018-12-16T23:25:08.439Z,18.70
2018-12-16T23:27:44.605Z,18.53
2018-12-16T23:30:16.032Z,17.87
2018-12-16T23:32:46.304Z,17.77
2018-12-16T23:35:22.899Z,18.93
2018-12-16T23:37:54.720Z,20.83
2018-12-16T23:40:28.885Z,19.57
2018-12-16T23:43:15.882Z,19.73
2018-12-16T23:45:46.043Z,19.00
2018-12-16T23:48:15.893Z,18.73
2018-12-16T23:50:48.049Z,20.23
2018-12-16T23:53:29.081Z,19.27
2018-12-16T23:56:12.064Z,20.57
